sensor_id;sensor_type;location;lat;lon;timestamp;P1;durP1;ratioP1;P2;durP2;ratioP2
19877;SDS011;10101;52.204;9.910;2023-03-21T00:02:20;14.93;;;8.90;;
19877;SDS011;10101;52.204;9.910;2023-03-21T00:04:48;15.60;;;9.73;;
19877;SDS011;10101;52.204;9.910;2023-03-21T00:07:15;16.93;;;9.43;;
19877;SDS011;10101;52.204;9.910;2023-03-21T00:09:42;14.03;;;9.33;;
19877;SDS011;10101;52.204;9.910;2023-03-21T00:12:09;15.40;;;8.80;;
19877;SDS011;10101;52.204;9.910;2023-03-21T00:14:38;13.20;;;9.10;;
19877;SDS011;10101;52.204;9.910;2023-03-21T00:17:04;15.23;;;9.23;;
19877;SDS011;10101;52.204;9.910;2023-03-21T00:19:31;12.73;;;8.47;;
19877;SDS011;10101;52.204;9.910;2023-03-21T00:22:02;18.17;;;9.40;;
19877;SDS011;10101;52.204;9.910;2023-03-21T00:24:30;15.10;;;9.17;;
19877;SDS011;10101;52.204;9.910;2023-03-21T00:26:56;17.60;;;10.10;;
19877;SDS011;10101;52.204;9.910;2023-03-21T00:29:23;14.90;;;9.60;;
19877;SDS011;10101;52.204;9.910;2023-03-21T00:31:51;15.73;;;8.70;;
19877;SDS011;10101;52.204;9.910;2023-03-21T00:34:18;14.13;;;9.13;;
19877;SDS011;10101;52.204;9.910;2023-03-21T00:36:45;15.50;;;9.27;;
19877;SDS011;10101;52.204;9.910;2023-03-21T00:39:11;13.13;;;7.70;;
19877;SDS011;10101;52.204;9.910;2023-03-21T00:41:39;16.13;;;8.90;;
19877;SDS011;10101;52.204;9.910;2023-03-21T00:44:06;17.93;;;9.10;;
19877;SDS011;10101;52.204;9.910;2023-03-21T00:46:33;12.47;;;8.40;;
19877;SDS011;10101;52.204;9.910;2023-03-21T00:49:02;13.47;;;8.97;;
19877;SDS011;10101;52.204;9.910;2023-03-21T00:51:28;15.13;;;8.73;;
19877;SDS011;10101;52.204;9.910;2023-03-21T00:53:57;15.40;;;8.87;;
19877;SDS011;10101;52.204;9.910;2023-03-21T00:56:24;15.27;;;8.30;;
19877;SDS011;10101;52.204;9.910;2023-03-21T00:58:51;15.57;;;8.27;;
19877;SDS011;10101;52.204;9.910;2023-03-21T01:01:18;18.43;;;8.53;;
19877;SDS011;10101;52.204;9.910;2023-03-21T01:03:45;12.43;;;8.17;;
19877;SDS011;10101;52.204;9.910;2023-03-21T01:06:16;10.37;;;7.87;;
19877;SDS011;10101;52.204;9.910;2023-03-21T01:08:44;13.30;;;8.17;;
19877;SDS011;10101;52.204;9.910;2023-03-21T01:11:13;13.07;;;8.10;;
19877;SDS011;10101;52.204;9.910;2023-03-21T01:13:43;15.83;;;8.20;;
19877;SDS011;10101;52.204;9.910;2023-03-21T01:16:10;12.77;;;7.90;;
19877;SDS011;10101;52.204;9.910;2023-03-21T01:18:38;10.13;;;7.27;;
19877;SDS011;10101;52.204;9.910;2023-03-21T01:21:06;15.87;;;8.53;;
19877;SDS011;10101;52.204;9.910;2023-03-21T01:23:37;12.87;;;8.10;;
19877;SDS011;10101;52.204;9.910;2023-03-21T01:26:05;13.77;;;7.73;;
19877;SDS011;10101;52.204;9.910;2023-03-21T01:28:33;15.80;;;7.97;;
19877;SDS011;10101;52.204;9.910;2023-03-21T01:31:02;14.73;;;7.60;;
19877;SDS011;10101;52.204;9.910;2023-03-21T01:33:30;14.47;;;8.37;;
19877;SDS011;10101;52.204;9.910;2023-03-21T01:35:58;14.50;;;7.97;;
19877;SDS011;10101;52.204;9.910;2023-03-21T01:38:25;13.97;;;7.30;;
19877;SDS011;10101;52.204;9.910;2023-03-21T01:40:53;13.97;;;8.50;;
19877;SDS011;10101;52.204;9.910;2023-03-21T01:43:24;12.50;;;8.17;;
19877;SDS011;10101;52.204;9.910;2023-03-21T01:49:00;13.77;;;8.00;;
19877;SDS011;10101;52.204;9.910;2023-03-21T01:51:30;11.33;;;7.97;;
19877;SDS011;10101;52.204;9.910;2023-03-21T01:54:01;15.37;;;7.63;;
19877;SDS011;10101;52.204;9.910;2023-03-21T01:56:32;15.73;;;8.53;;
19877;SDS011;10101;52.204;9.910;2023-03-21T01:59:04;12.50;;;8.13;;
19877;SDS011;10101;52.204;9.910;2023-03-21T02:01:33;14.80;;;9.07;;
19877;SDS011;10101;52.204;9.910;2023-03-21T02:04:02;13.90;;;8.40;;
19877;SDS011;10101;52.204;9.910;2023-03-21T02:06:34;15.00;;;8.53;;
19877;SDS011;10101;52.204;9.910;2023-03-21T02:09:08;15.00;;;7.63;;
19877;SDS011;10101;52.204;9.910;2023-03-21T02:11:41;14.37;;;8.50;;
19877;SDS011;10101;52.204;9.910;2023-03-21T02:14:11;15.63;;;8.53;;
19877;SDS011;10101;52.204;9.910;2023-03-21T02:16:43;14.70;;;8.33;;
19877;SDS011;10101;52.204;9.910;2023-03-21T02:22:53;13.03;;;7.97;;
19877;SDS011;10101;52.204;9.910;2023-03-21T02:25:47;17.23;;;8.63;;
19877;SDS011;10101;52.204;9.910;2023-03-21T02:28:32;13.43;;;8.37;;
19877;SDS011;10101;52.204;9.910;2023-03-21T02:31:07;17.67;;;8.27;;
19877;SDS011;10101;52.204;9.910;2023-03-21T02:33:59;12.67;;;7.90;;
19877;SDS011;10101;52.204;9.910;2023-03-21T02:36:49;12.67;;;7.83;;
19877;SDS011;10101;52.204;9.910;2023-03-21T02:39:22;15.43;;;7.83;;
19877;SDS011;10101;52.204;9.910;2023-03-21T02:41:53;14.50;;;8.83;;
19877;SDS011;10101;52.204;9.910;2023-03-21T02:44:28;15.30;;;8.53;;
19877;SDS011;10101;52.204;9.910;2023-03-21T02:47:00;13.13;;;7.97;;
19877;SDS011;10101;52.204;9.910;2023-03-21T02:49:32;16.07;;;8.97;;
19877;SDS011;10101;52.204;9.910;2023-03-21T02:52:05;13.27;;;9.10;;
19877;SDS011;10101;52.204;9.910;2023-03-21T02:54:34;16.13;;;8.90;;
19877;SDS011;10101;52.204;9.910;2023-03-21T02:57:02;17.27;;;8.97;;
19877;SDS011;10101;52.204;9.910;2023-03-21T02:59:30;13.93;;;8.47;;
19877;SDS011;10101;52.204;9.910;2023-03-21T03:02:00;18.97;;;9.50;;
19877;SDS011;10101;52.204;9.910;2023-03-21T03:04:28;16.70;;;9.50;;
19877;SDS011;10101;52.204;9.910;2023-03-21T03:07:03;19.13;;;9.17;;
19877;SDS011;10101;52.204;9.910;2023-03-21T03:09:40;17.10;;;8.60;;
19877;SDS011;10101;52.204;9.910;2023-03-21T03:12:23;17.10;;;8.73;;
19877;SDS011;10101;52.204;9.910;2023-03-21T03:14:57;17.03;;;8.77;;
19877;SDS011;10101;52.204;9.910;2023-03-21T03:17:34;18.47;;;9.47;;
19877;SDS011;10101;52.204;9.910;2023-03-21T03:20:17;15.07;;;8.40;;
19877;SDS011;10101;52.204;9.910;2023-03-21T03:22:53;15.07;;;8.93;;
19877;SDS011;10101;52.204;9.910;2023-03-21T03:25:28;16.07;;;9.60;;
19877;SDS011;10101;52.204;9.910;2023-03-21T03:28:01;20.03;;;9.27;;
19877;SDS011;10101;52.204;9.910;2023-03-21T03:30:31;15.70;;;8.60;;
19877;SDS011;10101;52.204;9.910;2023-03-21T03:33:01;16.17;;;8.97;;
19877;SDS011;10101;52.204;9.910;2023-03-21T03:35:30;14.23;;;8.37;;
19877;SDS011;10101;52.204;9.910;2023-03-21T03:37:59;15.77;;;7.97;;
19877;SDS011;10101;52.204;9.910;2023-03-21T03:40:30;15.03;;;8.53;;
19877;SDS011;10101;52.204;9.910;2023-03-21T03:43:03;14.60;;;8.90;;
19877;SDS011;10101;52.204;9.910;2023-03-21T03:45:34;14.23;;;8.30;;
19877;SDS011;10101;52.204;9.910;2023-03-21T03:48:10;14.13;;;8.37;;
19877;SDS011;10101;52.204;9.910;2023-03-21T03:50:43;14.27;;;7.93;;
19877;SDS011;10101;52.204;9.910;2023-03-21T03:53:18;15.17;;;8.37;;
19877;SDS011;10101;52.204;9.910;2023-03-21T03:55:48;13.20;;;8.33;;
19877;SDS011;10101;52.204;9.910;2023-03-21T03:58:16;14.67;;;8.07;;
19877;SDS011;10101;52.204;9.910;2023-03-21T04:00:44;16.07;;;9.03;;
19877;SDS011;10101;52.204;9.910;2023-03-21T04:03:11;15.73;;;8.47;;
19877;SDS011;10101;52.204;9.910;2023-03-21T04:05:38;14.43;;;8.90;;
19877;SDS011;10101;52.204;9.910;2023-03-21T04:08:06;13.43;;;8.27;;
19877;SDS011;10101;52.204;9.910;2023-03-21T04:10:34;19.20;;;9.50;;
19877;SDS011;10101;52.204;9.910;2023-03-21T04:13:00;14.40;;;8.93;;
19877;SDS011;10101;52.204;9.910;2023-03-21T04:15:27;14.23;;;8.57;;
19877;SDS011;10101;52.204;9.910;2023-03-21T04:17:54;17.00;;;9.27;;
19877;SDS011;10101;52.204;9.910;2023-03-21T04:20:21;13.07;;;8.53;;
19877;SDS011;10101;52.204;9.910;2023-03-21T04:22:48;12.90;;;8.10;;
19877;SDS011;10101;52.204;9.910;2023-03-21T04:25:15;15.17;;;8.80;;
19877;SDS011;10101;52.204;9.910;2023-03-21T04:27:43;13.67;;;8.73;;
19877;SDS011;10101;52.204;9.910;2023-03-21T04:30:10;15.10;;;9.90;;
19877;SDS011;10101;52.204;9.910;2023-03-21T04:32:38;13.87;;;9.13;;
19877;SDS011;10101;52.204;9.910;2023-03-21T04:35:07;18.10;;;9.47;;
19877;SDS011;10101;52.204;9.910;2023-03-21T04:37:35;15.67;;;9.83;;
19877;SDS011;10101;52.204;9.910;2023-03-21T04:40:03;13.90;;;9.10;;
19877;SDS011;10101;52.204;9.910;2023-03-21T04:42:32;14.83;;;9.23;;
19877;SDS011;10101;52.204;9.910;2023-03-21T04:45:00;17.63;;;9.53;;
19877;SDS011;10101;52.204;9.910;2023-03-21T04:47:28;15.80;;;9.20;;
19877;SDS011;10101;52.204;9.910;2023-03-21T04:49:55;18.37;;;9.23;;
19877;SDS011;10101;52.204;9.910;2023-03-21T04:52:22;18.60;;;9.30;;
19877;SDS011;10101;52.204;9.910;2023-03-21T04:54:48;16.20;;;9.67;;
19877;SDS011;10101;52.204;9.910;2023-03-21T04:57:15;17.73;;;9.73;;
19877;SDS011;10101;52.204;9.910;2023-03-21T04:59:42;21.13;;;10.50;;
19877;SDS011;10101;52.204;9.910;2023-03-21T05:02:11;18.03;;;10.80;;
19877;SDS011;10101;52.204;9.910;2023-03-21T05:04:38;14.77;;;9.77;;
19877;SDS011;10101;52.204;9.910;2023-03-21T05:07:05;18.13;;;9.37;;
19877;SDS011;10101;52.204;9.910;2023-03-21T05:09:32;17.33;;;10.10;;
19877;SDS011;10101;52.204;9.910;2023-03-21T05:11:59;17.17;;;9.57;;
19877;SDS011;10101;52.204;9.910;2023-03-21T05:14:25;15.70;;;9.60;;
19877;SDS011;10101;52.204;9.910;2023-03-21T05:16:53;14.73;;;9.43;;
19877;SDS011;10101;52.204;9.910;2023-03-21T05:19:23;16.10;;;10.17;;
19877;SDS011;10101;52.204;9.910;2023-03-21T05:21:59;18.67;;;10.43;;
19877;SDS011;10101;52.204;9.910;2023-03-21T05:24:28;15.03;;;9.50;;
19877;SDS011;10101;52.204;9.910;2023-03-21T05:26:56;16.07;;;9.47;;
19877;SDS011;10101;52.204;9.910;2023-03-21T05:29:26;14.83;;;9.73;;
19877;SDS011;10101;52.204;9.910;2023-03-21T05:31:54;15.50;;;9.60;;
19877;SDS011;10101;52.204;9.910;2023-03-21T05:34:22;19.93;;;10.07;;
19877;SDS011;10101;52.204;9.910;2023-03-21T05:36:49;16.03;;;8.77;;
19877;SDS011;10101;52.204;9.910;2023-03-21T05:39:16;17.17;;;10.77;;
19877;SDS011;10101;52.204;9.910;2023-03-21T05:41:43;14.83;;;9.47;;
19877;SDS011;10101;52.204;9.910;2023-03-21T05:44:09;13.57;;;9.33;;
19877;SDS011;10101;52.204;9.910;2023-03-21T05:46:36;14.83;;;9.87;;
19877;SDS011;10101;52.204;9.910;2023-03-21T05:49:03;15.80;;;8.97;;
19877;SDS011;10101;52.204;9.910;2023-03-21T05:51:31;18.07;;;9.57;;
19877;SDS011;10101;52.204;9.910;2023-03-21T05:53:58;18.33;;;9.80;;
19877;SDS011;10101;52.204;9.910;2023-03-21T05:56:24;18.23;;;10.57;;
19877;SDS011;10101;52.204;9.910;2023-03-21T05:58:51;14.67;;;9.23;;
19877;SDS011;10101;52.204;9.910;2023-03-21T06:01:18;18.97;;;10.03;;
19877;SDS011;10101;52.204;9.910;2023-03-21T06:03:45;18.60;;;9.57;;
19877;SDS011;10101;52.204;9.910;2023-03-21T06:06:11;13.37;;;9.17;;
19877;SDS011;10101;52.204;9.910;2023-03-21T06:08:39;17.70;;;9.70;;
19877;SDS011;10101;52.204;9.910;2023-03-21T06:11:06;14.30;;;8.77;;
19877;SDS011;10101;52.204;9.910;2023-03-21T06:13:44;13.80;;;8.57;;
19877;SDS011;10101;52.204;9.910;2023-03-21T06:16:10;16.90;;;8.90;;
19877;SDS011;10101;52.204;9.910;2023-03-21T06:18:37;14.57;;;9.23;;
19877;SDS011;10101;52.204;9.910;2023-03-21T06:21:04;16.57;;;8.53;;
19877;SDS011;10101;52.204;9.910;2023-03-21T06:23:31;15.67;;;8.43;;
19877;SDS011;10101;52.204;9.910;2023-03-21T06:25:59;13.87;;;8.83;;
19877;SDS011;10101;52.204;9.910;2023-03-21T06:28:26;14.37;;;8.27;;
19877;SDS011;10101;52.204;9.910;2023-03-21T06:30:52;15.10;;;8.37;;
19877;SDS011;10101;52.204;9.910;2023-03-21T06:33:19;14.40;;;7.83;;
19877;SDS011;10101;52.204;9.910;2023-03-21T06:35:49;18.40;;;8.83;;
19877;SDS011;10101;52.204;9.910;2023-03-21T06:38:16;16.57;;;8.20;;
19877;SDS011;10101;52.204;9.910;2023-03-21T06:40:44;13.97;;;7.97;;
19877;SDS011;10101;52.204;9.910;2023-03-21T06:43:12;17.90;;;8.50;;
19877;SDS011;10101;52.204;9.910;2023-03-21T06:45:38;18.33;;;7.97;;
19877;SDS011;10101;52.204;9.910;2023-03-21T06:48:05;13.77;;;7.67;;
19877;SDS011;10101;52.204;9.910;2023-03-21T06:50:32;16.77;;;8.00;;
19877;SDS011;10101;52.204;9.910;2023-03-21T06:52:59;13.20;;;7.60;;
19877;SDS011;10101;52.204;9.910;2023-03-21T06:55:26;17.53;;;8.73;;
19877;SDS011;10101;52.204;9.910;2023-03-21T06:57:53;13.67;;;8.07;;
19877;SDS011;10101;52.204;9.910;2023-03-21T07:00:23;17.57;;;8.37;;
19877;SDS011;10101;52.204;9.910;2023-03-21T07:02:50;14.40;;;7.50;;
19877;SDS011;10101;52.204;9.910;2023-03-21T07:05:17;14.87;;;7.30;;
19877;SDS011;10101;52.204;9.910;2023-03-21T07:07:44;18.57;;;8.63;;
19877;SDS011;10101;52.204;9.910;2023-03-21T07:10:12;16.63;;;7.67;;
19877;SDS011;10101;52.204;9.910;2023-03-21T07:12:39;14.47;;;7.70;;
19877;SDS011;10101;52.204;9.910;2023-03-21T07:15:07;12.93;;;7.33;;
19877;SDS011;10101;52.204;9.910;2023-03-21T07:17:35;14.07;;;7.80;;
19877;SDS011;10101;52.204;9.910;2023-03-21T07:20:02;13.13;;;7.77;;
19877;SDS011;10101;52.204;9.910;2023-03-21T07:22:33;15.17;;;8.03;;
19877;SDS011;10101;52.204;9.910;2023-03-21T07:25:00;14.17;;;8.20;;
19877;SDS011;10101;52.204;9.910;2023-03-21T07:27:27;15.33;;;7.73;;
19877;SDS011;10101;52.204;9.910;2023-03-21T07:29:53;15.13;;;6.70;;
19877;SDS011;10101;52.204;9.910;2023-03-21T07:32:20;15.77;;;8.93;;
19877;SDS011;10101;52.204;9.910;2023-03-21T07:34:48;13.40;;;7.47;;
19877;SDS011;10101;52.204;9.910;2023-03-21T07:37:15;18.93;;;7.93;;
19877;SDS011;10101;52.204;9.910;2023-03-21T07:39:42;15.00;;;7.37;;
19877;SDS011;10101;52.204;9.910;2023-03-21T07:42:09;12.77;;;7.77;;
19877;SDS011;10101;52.204;9.910;2023-03-21T07:44:35;21.20;;;7.63;;
19877;SDS011;10101;52.204;9.910;2023-03-21T07:47:02;18.60;;;8.03;;
19877;SDS011;10101;52.204;9.910;2023-03-21T07:49:29;16.13;;;7.73;;
19877;SDS011;10101;52.204;9.910;2023-03-21T07:51:57;16.13;;;7.00;;
19877;SDS011;10101;52.204;9.910;2023-03-21T07:54:26;12.90;;;7.60;;
19877;SDS011;10101;52.204;9.910;2023-03-21T07:56:53;13.73;;;6.83;;
19877;SDS011;10101;52.204;9.910;2023-03-21T07:59:20;15.67;;;6.73;;
19877;SDS011;10101;52.204;9.910;2023-03-21T08:01:47;14.47;;;7.10;;
19877;SDS011;10101;52.204;9.910;2023-03-21T08:04:14;13.70;;;7.57;;
19877;SDS011;10101;52.204;9.910;2023-03-21T08:06:41;16.67;;;7.03;;
19877;SDS011;10101;52.204;9.910;2023-03-21T08:09:09;14.87;;;6.83;;
19877;SDS011;10101;52.204;9.910;2023-03-21T08:11:35;14.07;;;6.83;;
19877;SDS011;10101;52.204;9.910;2023-03-21T08:14:02;17.03;;;7.23;;
19877;SDS011;10101;52.204;9.910;2023-03-21T08:16:29;14.47;;;7.10;;
19877;SDS011;10101;52.204;9.910;2023-03-21T08:18:56;11.40;;;6.23;;
19877;SDS011;10101;52.204;9.910;2023-03-21T08:21:23;14.93;;;6.70;;
19877;SDS011;10101;52.204;9.910;2023-03-21T08:23:50;15.73;;;6.60;;
19877;SDS011;10101;52.204;9.910;2023-03-21T08:26:19;12.43;;;6.60;;
19877;SDS011;10101;52.204;9.910;2023-03-21T08:28:50;14.60;;;7.43;;
19877;SDS011;10101;52.204;9.910;2023-03-21T08:31:17;12.57;;;6.93;;
19877;SDS011;10101;52.204;9.910;2023-03-21T08:33:45;16.63;;;7.37;;
19877;SDS011;10101;52.204;9.910;2023-03-21T08:36:15;12.93;;;6.70;;
19877;SDS011;10101;52.204;9.910;2023-03-21T08:38:41;12.90;;;7.00;;
19877;SDS011;10101;52.204;9.910;2023-03-21T08:41:10;13.57;;;6.80;;
19877;SDS011;10101;52.204;9.910;2023-03-21T08:43:38;15.70;;;7.77;;
19877;SDS011;10101;52.204;9.910;2023-03-21T08:46:05;17.87;;;7.30;;
19877;SDS011;10101;52.204;9.910;2023-03-21T08:48:32;13.77;;;7.70;;
19877;SDS011;10101;52.204;9.910;2023-03-21T08:51:04;17.13;;;7.37;;
19877;SDS011;10101;52.204;9.910;2023-03-21T08:53:31;18.17;;;7.63;;
19877;SDS011;10101;52.204;9.910;2023-03-21T08:55:58;18.17;;;7.93;;
19877;SDS011;10101;52.204;9.910;2023-03-21T08:58:25;14.60;;;7.27;;
19877;SDS011;10101;52.204;9.910;2023-03-21T09:00:53;16.03;;;7.43;;
19877;SDS011;10101;52.204;9.910;2023-03-21T09:03:20;14.37;;;6.83;;
19877;SDS011;10101;52.204;9.910;2023-03-21T09:05:47;13.37;;;7.63;;
19877;SDS011;10101;52.204;9.910;2023-03-21T09:08:14;18.37;;;7.40;;
19877;SDS011;10101;52.204;9.910;2023-03-21T09:10:41;14.47;;;7.47;;
19877;SDS011;10101;52.204;9.910;2023-03-21T09:13:08;14.30;;;6.73;;
19877;SDS011;10101;52.204;9.910;2023-03-21T09:15:34;16.63;;;6.80;;
19877;SDS011;10101;52.204;9.910;2023-03-21T09:18:03;15.93;;;6.23;;
19877;SDS011;10101;52.204;9.910;2023-03-21T09:20:39;15.10;;;7.30;;
19877;SDS011;10101;52.204;9.910;2023-03-21T09:23:07;11.67;;;6.80;;
19877;SDS011;10101;52.204;9.910;2023-03-21T09:25:34;18.03;;;7.13;;
19877;SDS011;10101;52.204;9.910;2023-03-21T09:28:02;19.57;;;10.33;;
19877;SDS011;10101;52.204;9.910;2023-03-21T09:30:30;16.53;;;6.80;;
19877;SDS011;10101;52.204;9.910;2023-03-21T09:32:58;15.17;;;6.70;;
19877;SDS011;10101;52.204;9.910;2023-03-21T09:35:27;12.87;;;6.47;;
19877;SDS011;10101;52.204;9.910;2023-03-21T09:37:55;16.23;;;6.60;;
19877;SDS011;10101;52.204;9.910;2023-03-21T09:40:26;14.50;;;6.10;;
19877;SDS011;10101;52.204;9.910;2023-03-21T09:43:01;11.33;;;6.37;;
19877;SDS011;10101;52.204;9.910;2023-03-21T09:45:36;12.43;;;6.30;;
19877;SDS011;10101;52.204;9.910;2023-03-21T09:48:11;11.10;;;6.10;;
19877;SDS011;10101;52.204;9.910;2023-03-21T09:50:45;16.53;;;6.30;;
19877;SDS011;10101;52.204;9.910;2023-03-21T09:53:13;15.47;;;5.80;;
19877;SDS011;10101;52.204;9.910;2023-03-21T09:55:45;9.67;;;5.90;;
19877;SDS011;10101;52.204;9.910;2023-03-21T09:58:18;17.93;;;6.63;;
19877;SDS011;10101;52.204;9.910;2023-03-21T10:00:51;13.13;;;6.60;;
19877;SDS011;10101;52.204;9.910;2023-03-21T10:03:26;14.10;;;6.47;;
19877;SDS011;10101;52.204;9.910;2023-03-21T10:06:01;17.83;;;6.40;;
19877;SDS011;10101;52.204;9.910;2023-03-21T10:08:32;13.77;;;6.27;;
19877;SDS011;10101;52.204;9.910;2023-03-21T10:11:02;9.90;;;5.57;;
19877;SDS011;10101;52.204;9.910;2023-03-21T10:13:33;16.90;;;6.20;;
19877;SDS011;10101;52.204;9.910;2023-03-21T10:16:09;12.27;;;6.00;;
19877;SDS011;10101;52.204;9.910;2023-03-21T10:18:39;13.67;;;6.47;;
19877;SDS011;10101;52.204;9.910;2023-03-21T10:21:10;14.03;;;6.23;;
19877;SDS011;10101;52.204;9.910;2023-03-21T10:23:43;10.67;;;5.80;;
19877;SDS011;10101;52.204;9.910;2023-03-21T10:26:10;13.30;;;6.40;;
19877;SDS011;10101;52.204;9.910;2023-03-21T10:28:38;11.33;;;5.27;;
19877;SDS011;10101;52.204;9.910;2023-03-21T10:31:08;9.00;;;5.43;;
19877;SDS011;10101;52.204;9.910;2023-03-21T10:33:41;13.70;;;5.90;;
19877;SDS011;10101;52.204;9.910;2023-03-21T10:36:12;13.07;;;5.73;;
19877;SDS011;10101;52.204;9.910;2023-03-21T10:38:43;11.83;;;6.10;;
19877;SDS011;10101;52.204;9.910;2023-03-21T10:41:14;11.43;;;5.63;;
19877;SDS011;10101;52.204;9.910;2023-03-21T10:43:41;12.43;;;5.57;;
19877;SDS011;10101;52.204;9.910;2023-03-21T10:46:10;9.27;;;5.53;;
19877;SDS011;10101;52.204;9.910;2023-03-21T10:48:39;13.50;;;5.77;;
19877;SDS011;10101;52.204;9.910;2023-03-21T10:51:13;10.00;;;5.90;;
19877;SDS011;10101;52.204;9.910;2023-03-21T10:53:44;14.80;;;5.67;;
19877;SDS011;10101;52.204;9.910;2023-03-21T10:56:15;11.23;;;5.73;;
19877;SDS011;10101;52.204;9.910;2023-03-21T10:58:43;16.70;;;5.70;;
19877;SDS011;10101;52.204;9.910;2023-03-21T11:01:12;12.90;;;5.97;;
19877;SDS011;10101;52.204;9.910;2023-03-21T11:03:53;14.10;;;5.70;;
19877;SDS011;10101;52.204;9.910;2023-03-21T11:06:25;12.90;;;5.40;;
19877;SDS011;10101;52.204;9.910;2023-03-21T11:08:54;14.80;;;6.07;;
19877;SDS011;10101;52.204;9.910;2023-03-21T11:11:26;12.63;;;6.07;;
19877;SDS011;10101;52.204;9.910;2023-03-21T11:13:58;13.07;;;5.63;;
19877;SDS011;10101;52.204;9.910;2023-03-21T11:16:31;13.70;;;5.93;;
19877;SDS011;10101;52.204;9.910;2023-03-21T11:19:10;9.93;;;5.53;;
19877;SDS011;10101;52.204;9.910;2023-03-21T11:21:40;12.83;;;5.63;;
19877;SDS011;10101;52.204;9.910;2023-03-21T11:24:09;10.63;;;5.70;;
19877;SDS011;10101;52.204;9.910;2023-03-21T11:26:40;15.10;;;5.90;;
19877;SDS011;10101;52.204;9.910;2023-03-21T11:29:18;9.80;;;5.33;;
19877;SDS011;10101;52.204;9.910;2023-03-21T11:31:51;11.90;;;5.60;;
19877;SDS011;10101;52.204;9.910;2023-03-21T11:34:25;13.30;;;5.80;;
19877;SDS011;10101;52.204;9.910;2023-03-21T11:37:00;13.20;;;6.07;;
19877;SDS011;10101;52.204;9.910;2023-03-21T11:39:30;11.27;;;5.73;;
19877;SDS011;10101;52.204;9.910;2023-03-21T11:41:58;10.53;;;5.60;;
19877;SDS011;10101;52.204;9.910;2023-03-21T11:44:29;13.93;;;6.40;;
19877;SDS011;10101;52.204;9.910;2023-03-21T11:46:57;14.60;;;5.93;;
19877;SDS011;10101;52.204;9.910;2023-03-21T11:49:25;15.57;;;6.43;;
19877;SDS011;10101;52.204;9.910;2023-03-21T11:51:57;15.03;;;6.60;;
19877;SDS011;10101;52.204;9.910;2023-03-21T11:54:33;17.57;;;7.07;;
19877;SDS011;10101;52.204;9.910;2023-03-21T11:57:06;17.83;;;6.70;;
19877;SDS011;10101;52.204;9.910;2023-03-21T11:59:40;10.30;;;5.93;;
19877;SDS011;10101;52.204;9.910;2023-03-21T12:02:20;19.60;;;6.90;;
19877;SDS011;10101;52.204;9.910;2023-03-21T12:05:02;12.23;;;6.40;;
19877;SDS011;10101;52.204;9.910;2023-03-21T12:07:39;12.90;;;6.23;;
19877;SDS011;10101;52.204;9.910;2023-03-21T12:10:23;16.83;;;6.97;;
19877;SDS011;10101;52.204;9.910;2023-03-21T12:12:57;11.43;;;6.93;;
19877;SDS011;10101;52.204;9.910;2023-03-21T12:15:35;13.60;;;6.87;;
19877;SDS011;10101;52.204;9.910;2023-03-21T12:18:08;11.80;;;6.93;;
19877;SDS011;10101;52.204;9.910;2023-03-21T12:20:42;30.17;;;9.67;;
19877;SDS011;10101;52.204;9.910;2023-03-21T12:23:22;15.27;;;8.40;;
19877;SDS011;10101;52.204;9.910;2023-03-21T12:26:13;16.83;;;7.33;;
19877;SDS011;10101;52.204;9.910;2023-03-21T12:28:50;15.70;;;7.77;;
19877;SDS011;10101;52.204;9.910;2023-03-21T12:31:38;18.27;;;7.60;;
19877;SDS011;10101;52.204;9.910;2023-03-21T12:34:17;15.07;;;7.20;;
19877;SDS011;10101;52.204;9.910;2023-03-21T12:36:58;18.47;;;8.00;;
19877;SDS011;10101;52.204;9.910;2023-03-21T12:39:39;17.73;;;7.77;;
19877;SDS011;10101;52.204;9.910;2023-03-21T12:42:08;17.60;;;8.07;;
19877;SDS011;10101;52.204;9.910;2023-03-21T12:44:53;14.80;;;7.30;;
19877;SDS011;10101;52.204;9.910;2023-03-21T12:47:26;18.40;;;8.07;;
19877;SDS011;10101;52.204;9.910;2023-03-21T12:49:59;14.20;;;7.60;;
19877;SDS011;10101;52.204;9.910;2023-03-21T12:52:29;16.27;;;8.10;;
19877;SDS011;10101;52.204;9.910;2023-03-21T12:55:00;17.20;;;8.00;;
19877;SDS011;10101;52.204;9.910;2023-03-21T12:57:32;16.80;;;8.50;;
19877;SDS011;10101;52.204;9.910;2023-03-21T13:00:04;17.80;;;7.77;;
19877;SDS011;10101;52.204;9.910;2023-03-21T13:02:37;18.07;;;8.87;;
19877;SDS011;10101;52.204;9.910;2023-03-21T13:05:09;17.20;;;8.83;;
19877;SDS011;10101;52.204;9.910;2023-03-21T13:07:44;17.47;;;8.60;;
19877;SDS011;10101;52.204;9.910;2023-03-21T13:10:17;11.70;;;8.17;;
19877;SDS011;10101;52.204;9.910;2023-03-21T13:12:53;15.93;;;8.63;;
19877;SDS011;10101;52.204;9.910;2023-03-21T13:15:36;16.07;;;8.00;;
19877;SDS011;10101;52.204;9.910;2023-03-21T13:18:15;13.83;;;8.17;;
19877;SDS011;10101;52.204;9.910;2023-03-21T13:20:51;16.67;;;8.87;;
19877;SDS011;10101;52.204;9.910;2023-03-21T13:23:22;13.30;;;7.77;;
19877;SDS011;10101;52.204;9.910;2023-03-21T13:25:51;16.20;;;7.97;;
19877;SDS011;10101;52.204;9.910;2023-03-21T13:28:25;16.90;;;8.40;;
19877;SDS011;10101;52.204;9.910;2023-03-21T13:31:01;21.53;;;9.67;;
19877;SDS011;10101;52.204;9.910;2023-03-21T13:33:44;27.17;;;14.13;;
19877;SDS011;10101;52.204;9.910;2023-03-21T13:36:12;22.30;;;11.57;;
19877;SDS011;10101;52.204;9.910;2023-03-21T13:38:40;19.60;;;8.37;;
19877;SDS011;10101;52.204;9.910;2023-03-21T13:41:10;15.83;;;7.97;;
19877;SDS011;10101;52.204;9.910;2023-03-21T13:43:42;16.63;;;7.80;;
19877;SDS011;10101;52.204;9.910;2023-03-21T13:46:11;19.67;;;7.97;;
19877;SDS011;10101;52.204;9.910;2023-03-21T13:48:40;16.80;;;8.40;;
19877;SDS011;10101;52.204;9.910;2023-03-21T13:51:38;19.93;;;8.50;;
19877;SDS011;10101;52.204;9.910;2023-03-21T13:54:18;14.43;;;8.00;;
19877;SDS011;10101;52.204;9.910;2023-03-21T13:56:50;15.27;;;8.50;;
19877;SDS011;10101;52.204;9.910;2023-03-21T13:59:19;14.50;;;8.03;;
19877;SDS011;10101;52.204;9.910;2023-03-21T14:02:03;43.40;;;9.37;;
19877;SDS011;10101;52.204;9.910;2023-03-21T14:04:51;14.37;;;7.77;;
19877;SDS011;10101;52.204;9.910;2023-03-21T14:07:22;15.43;;;6.93;;
19877;SDS011;10101;52.204;9.910;2023-03-21T14:09:52;17.17;;;8.23;;
19877;SDS011;10101;52.204;9.910;2023-03-21T14:12:24;18.90;;;8.43;;
19877;SDS011;10101;52.204;9.910;2023-03-21T14:14:57;21.03;;;7.80;;
19877;SDS011;10101;52.204;9.910;2023-03-21T14:17:26;17.77;;;8.10;;
19877;SDS011;10101;52.204;9.910;2023-03-21T14:19:55;17.03;;;7.90;;
19877;SDS011;10101;52.204;9.910;2023-03-21T14:22:24;18.37;;;7.67;;
19877;SDS011;10101;52.204;9.910;2023-03-21T14:24:55;10.60;;;5.80;;
19877;SDS011;10101;52.204;9.910;2023-03-21T14:27:25;12.40;;;5.93;;
19877;SDS011;10101;52.204;9.910;2023-03-21T14:29:55;10.60;;;6.13;;
19877;SDS011;10101;52.204;9.910;2023-03-21T14:32:24;11.37;;;5.90;;
19877;SDS011;10101;52.204;9.910;2023-03-21T14:34:52;16.87;;;6.10;;
19877;SDS011;10101;52.204;9.910;2023-03-21T14:37:30;9.77;;;5.43;;
19877;SDS011;10101;52.204;9.910;2023-03-21T14:39:59;13.17;;;5.40;;
19877;SDS011;10101;52.204;9.910;2023-03-21T14:42:34;9.13;;;5.00;;
19877;SDS011;10101;52.204;9.910;2023-03-21T14:45:09;9.77;;;4.93;;
19877;SDS011;10101;52.204;9.910;2023-03-21T14:47:40;9.57;;;5.43;;
19877;SDS011;10101;52.204;9.910;2023-03-21T14:50:20;11.33;;;5.30;;
19877;SDS011;10101;52.204;9.910;2023-03-21T14:52:49;10.00;;;4.57;;
19877;SDS011;10101;52.204;9.910;2023-03-21T14:55:18;14.77;;;5.47;;
19877;SDS011;10101;52.204;9.910;2023-03-21T14:57:46;12.57;;;5.30;;
19877;SDS011;10101;52.204;9.910;2023-03-21T15:00:16;10.17;;;5.43;;